Uleta, Florida
Current Conditions -  °F | °C
As of 4:53 AM on Monday 22 Dec 2014 (Local Time) from KHWO Reporting Station
Clear Clear  
Wind Chill: 67°   Ceiling: Unl
Heat Index: 67°   Visibility: 10mi
Dew Point: 64°   Wind: 0mph
Humidity: 90%   Direction: NA
Pressure: 30.03"   Gusts: NA
Location:  25.9298°N, 80.1792°W
Report Text: KHWO 220953Z AUTO 00000KT 10SM CLR 19/18 A3003 RMK AO2 SLP167 T01940178
Loading
Personal Weather Stations






























Interactive Weather Map New forecast layout! Learn more

10-Day Weather Forecast

Advertisements
Track Severe Weather on mobile